• Join FlightAware (Why Join?)
  • Login
  • US Flag 
05:08PM EDT


 

Airport Tracker/Info


-or-


 

Live Flight TrackerFlight Track Log ✈ ASQ6167 ✈ 01-Sep-2013 ✈ KIAD - KCMH

Flight Track Log - Related Links

Times and Time Zones

All times are in EDT time to prevent confusion due to time zone crossing. See the ASQ6167 flight status page for this flight to view local times or setup timezone preferences in your user account.

Time Position Orientation Groundspeed Altitude Reporting Facility
EDT Latitude Longitude Course Direction KTS MPH feet Rate Location/Type
08:36AM 38.8667 -77.4833 270° West 262 302 4,100  Level Potomac TRACON
08:37AM 38.8500 -77.5667 256° West 259 298 8,100 3,240 Climbing Potomac TRACON
08:38AM 38.8833 -77.7969 270° West  Level FlightAware Approximate
08:38AM 38.8119 -77.6750 246° West 287 330 11,100  Level Washington Center
08:39AM 38.8667 -77.9168 293° West  Level FlightAware Approximate
08:39AM 38.7728 -77.7750 243° Southwest 341 392 13,100  Level Washington Center
08:40AM 38.8995 -78.0311 288° West  Level FlightAware Approximate
08:40AM 38.8397 -77.8678 313° West 317 365 14,800  Level Washington Center
08:41AM 38.9285 -78.1472 288° West  Level FlightAware Approximate
08:41AM 38.8856 -77.9783 298° West 346 398 16,400  Level Washington Center
08:42AM 38.9500 -78.2619 270° West  Level FlightAware Approximate
08:42AM 38.9247 -78.0997 293° West 361 415 18,300  Level Washington Center
08:43AM 38.9594 -78.2292 289° West 379 436 20,200 1,620 Climbing Washington Center
08:44AM 38.9669 -78.3683 274° West 379 436 21,600 1,200 Climbing Washington Center
08:45AM 38.9697 -78.5153 271° West 401 461 22,600 960 Climbing Washington Center
08:46AM 38.9742 -78.6622 272° West 414 476 23,500 660 Climbing Washington Center
08:47AM 38.9786 -78.8172 272° West 426 490 24,000 240 Climbing Washington Center
08:48AM 38.9828 -78.9669 272° West 426 490 24,000  Level Washington Center
08:49AM 38.9847 -79.1142 271° West 421 484 24,000  Level Washington Center
08:50AM 38.9886 -79.2639 272° West 421 484 24,000  Level Washington Center
08:51AM 38.9922 -79.4217 272° West 427 491 24,000  Level Washington Center
08:52AM 38.9975 -79.5767 273° West 432 497 24,000  Level Washington Center
08:53AM 39.0003 -79.7372 271° West 445 512 24,000  Level Washington Center
08:54AM 39.0033 -79.8922 272° West 445 512 24,000  Level Washington Center
08:55AM 39.0028 -80.0017 270° West 436 502 24,000  Level Indianapolis Center
08:56AM 39.0061 -80.1825 271° West 436 502 24,000  Level Indianapolis Center
08:57AM 39.0228 -80.3342 278° West 439 505 24,000  Level Indianapolis Center
08:58AM 39.0656 -80.4797 291° West 435 501 24,000  Level Indianapolis Center
08:59AM 39.1081 -80.6242 291° West 434 499 24,000  Level Indianapolis Center
09:00AM 39.1483 -80.7661 290° West 427 491 24,000  Level Indianapolis Center
09:01AM 39.1903 -80.9081 291° West 426 490 24,000 -60 Level Indianapolis Center
09:02AM 39.2297 -81.0511 290° West 427 491 23,900 -540 Descending Indianapolis Center
09:03AM 39.2711 -81.1933 291° West 426 490 23,000 -480 Descending Indianapolis Center
09:04AM 39.3122 -81.3356 291° West 427 491 23,000  Level Indianapolis Center
09:05AM 39.3519 -81.4789 290° West 426 490 23,000 -480 Level Indianapolis Center
09:06AM 39.3928 -81.6244 290° West 430 495 22,100 -1,620 Descending Indianapolis Center
09:07AM 39.4303 -81.7597 290° West 407 468 19,800 -2,400 Descending Indianapolis Center
09:08AM 39.4672 -81.8950 290° West 401 461 17,300 -2,820 Descending Indianapolis Center
09:09AM 39.4992 -82.0225 288° West 385 443 14,700 -2,700 Descending Indianapolis Center
09:10AM 39.5444 -82.1772 291° West 368 423 11,900 -1,800 Descending Indianapolis Center
09:11AM 39.5886 -82.2869 298° West 342 394 10,800 -960 Descending Indianapolis Center
09:12AM 39.6378 -82.3983 300° West 334 384 10,000 -420 Descending Indianapolis Center
09:13AM 39.6861 -82.4958 303° West 339 390 10,000  Level Indianapolis Center
09:14AM 39.7361 -82.6092 300° West 343 395 10,000  Level Indianapolis Center
09:15AM 39.7856 -82.7119 302° West 341 392 10,000 -600 Level Indianapolis Center
09:16AM 39.8256 -82.8000 301° West 267 307 8,900 -1,500 Descending Indianapolis Center
09:17AM 39.8639 -82.8825 301° West 259 298 7,000 -2,040 Descending Indianapolis Center
09:18AM 39.9025 -82.9650 301° West 264 304 4,900 -1,680 Descending Indianapolis Center
09:20AM 39.9411 -83.0422 303° West 249 287 3,600 -960 Descending Indianapolis Center
09:21AM 39.9967 -83.0347 North 210 242 3,000 -840 Descending Indianapolis Center
09:22AM 40.0061 -82.9733 79° East 189 217 2,000 -1,020 Descending Indianapolis Center
09:23AM 40.0036 -82.9222 94° East 161 185 1,000 -1,020 Descending Indianapolis Center